Time;durP1;ratioP1;P1;durP2;ratioP2;P2;SDS_P1;SDS_P2;PMS_P1;PMS_P2;Temp;Humidity;BMP_temperature;BMP_pressure;BME280_temperature;BME280_humidity;BME280_pressure;Samples;Min_cycle;Max_cycle;Signal;HPM_P1;HPM_P2
2022/03/03 00:00:28;;;;;;;69.65;35.25;;;3.60;99.90;;;;;;5030046;28;20724;-67
2022/03/03 00:02:54;;;;;;;74.50;37.05;;;3.60;99.90;;;;;;5030329;28;20092;-70
2022/03/03 00:05:19;;;;;;;72.70;38.20;;;3.40;99.90;;;;;;5031526;28;20049;-67
2022/03/03 00:07:45;;;;;;;70.40;35.42;;;3.30;99.90;;;;;;5030119;28;20045;-67
2022/03/03 00:10:11;;;;;;;66.40;34.95;;;3.40;99.90;;;;;;5029717;28;20052;-68
2022/03/03 00:12:37;;;;;;;65.40;34.28;;;;;;;;;;5030096;28;20104;-69
2022/03/03 00:15:03;;;;;;;74.10;35.53;;;;;;;;;;5030076;28;20037;-70
2022/03/03 00:17:31;;;;;;;68.25;35.00;;;;;;;;;;5030010;28;20057;-68
2022/03/03 00:19:57;;;;;;;70.22;36.72;;;;;;;;;;5029695;28;20482;-68
2022/03/03 00:22:23;;;;;;;68.70;35.70;;;;;;;;;;5031264;28;20073;-69
2022/03/03 00:24:49;;;;;;;71.50;35.47;;;;;;;;;;5035291;28;20549;-70
2022/03/03 00:27:15;;;;;;;66.90;34.63;;;;;;;;;;5033943;28;20049;-67
2022/03/03 00:29:41;;;;;;;70.18;35.58;;;;;;;;;;5033764;28;20530;-67
2022/03/03 00:32:07;;;;;;;67.95;34.47;;;;;;;;;;5033770;28;20077;-67
2022/03/03 00:34:33;;;;;;;70.97;36.25;;;;;;;;;;5034220;28;20406;-67
2022/03/03 00:36:59;;;;;;;68.82;36.25;;;;;;;;;;5034142;28;20107;-67
2022/03/03 00:39:27;;;;;;;66.97;36.53;;;;;;;;;;5033504;28;20499;-67
2022/03/03 00:41:53;;;;;;;70.75;35.47;;;;;;;;;;5033754;28;20566;-67
2022/03/03 00:44:19;;;;;;;76.05;35.97;;;;;;;;;;5017515;28;20132;-67
2022/03/03 00:46:45;;;;;;;69.15;34.63;;;;;;;;;;5033477;28;20510;-69
2022/03/03 00:49:11;;;;;;;67.32;35.10;;;;;;;;;;5033325;28;20060;-68
2022/03/03 00:51:37;;;;;;;72.30;36.45;;;;;;;;;;5033659;28;20037;-68
2022/03/03 00:54:03;;;;;;;70.43;36.25;;;;;;;;;;5033722;28;20083;-70
2022/03/03 00:56:29;;;;;;;68.72;34.85;;;;;;;;;;5033505;28;20064;-70
2022/03/03 00:58:55;;;;;;;68.93;36.05;;;;;;;;;;5033622;28;20099;-67
2022/03/03 01:01:21;;;;;;;69.43;35.58;;;;;;;;;;5034922;28;20041;-68
2022/03/03 01:03:47;;;;;;;71.78;38.45;;;;;;;;;;5034529;28;20136;-67
2022/03/03 01:06:14;;;;;;;71.63;35.85;;;;;;;;;;5033403;28;20048;-67
2022/03/03 01:08:40;;;;;;;66.88;34.38;;;;;;;;;;5033261;28;20041;-70
2022/03/03 01:11:06;;;;;;;69.72;35.83;;;3.10;99.90;;;;;;5033285;28;20041;-70
2022/03/03 01:13:32;;;;;;;66.38;34.92;;;2.80;99.90;;;;;;5033409;28;20510;-68
2022/03/03 01:15:58;;;;;;;73.20;35.90;;;;;;;;;;5033081;28;20083;-68
2022/03/03 01:18:24;;;;;;;71.55;36.03;;;;;;;;;;5033110;28;20436;-70
2022/03/03 01:20:50;;;;;;;73.03;37.28;;;;;;;;;;5032781;28;20057;-67
2022/03/03 01:23:17;;;;;;;75.25;36.47;;;;;;;;;;5032877;28;20037;-69
2022/03/03 01:25:43;;;;;;;76.43;36.67;;;;;;;;;;5033067;28;20040;-68
2022/03/03 01:28:09;;;;;;;74.10;36.70;;;;;;;;;;5033133;28;20038;-68
2022/03/03 01:30:35;;;;;;;73.78;36.08;;;;;;;;;;5032571;28;20069;-67
2022/03/03 01:33:01;;;;;;;70.05;35.47;;;;;;;;;;5032748;28;20114;-69
2022/03/03 01:35:27;;;;;;;70.82;35.83;;;;;;;;;;5033193;28;20510;-71
2022/03/03 01:37:53;;;;;;;75.25;36.35;;;;;;;;;;5032705;28;20052;-67
2022/03/03 01:40:22;;;;;;;71.20;36.85;;;;;;;;;;5033838;28;20033;-67
2022/03/03 01:42:48;;;;;;;67.07;34.47;;;;;;;;;;5054861;22;20045;-68
2022/03/03 01:45:14;;;;;;;66.90;34.10;;;2.80;99.90;;;;;;5032856;28;20407;-68
2022/03/03 01:47:40;;;;;;;71.03;35.35;;;;;;;;;;5032938;28;20132;-69
2022/03/03 01:50:06;;;;;;;71.68;35.88;;;;;;;;;;5033755;28;20044;-68
2022/03/03 01:52:32;;;;;;;70.50;34.80;;;2.70;99.90;;;;;;5032768;28;20080;-71
2022/03/03 01:54:59;;;;;;;75.13;36.10;;;;;;;;;;5032978;28;20065;-71
2022/03/03 01:57:24;;;;;;;70.78;37.60;;;2.60;99.90;;;;;;5032638;28;20120;-71
2022/03/03 01:59:50;;;;;;;73.00;35.25;;;;;;;;;;5032249;28;20124;-72
2022/03/03 02:02:17;;;;;;;74.53;37.78;;;;;;;;;;5032573;28;20068;-72
2022/03/03 02:04:43;;;;;;;73.65;37.00;;;;;;;;;;5016182;28;20479;-71
2022/03/03 02:07:09;;;;;;;70.63;35.15;;;;;;;;;;5032405;28;20076;-71
2022/03/03 02:09:35;;;;;;;69.53;35.72;;;2.60;99.90;;;;;;5032145;28;20069;-71
2022/03/03 02:12:01;;;;;;;74.38;35.15;;;2.30;99.90;;;;;;5032343;28;20172;-72
2022/03/03 02:14:27;;;;;;;77.75;36.47;;;2.60;99.90;;;;;;5032288;28;20125;-71
2022/03/03 02:16:53;;;;;;;73.72;36.92;;;;;;;;;;5016181;28;20131;-71
2022/03/03 02:19:20;;;;;;;73.28;36.28;;;;;;;;;;5031957;28;20045;-71
2022/03/03 02:21:47;;;;;;;80.95;34.92;;;2.30;99.90;;;;;;5032427;28;20043;-71
2022/03/03 02:24:13;;;;;;;73.50;36.65;;;2.50;99.90;;;;;;5032285;28;20411;-71
2022/03/03 02:26:39;;;;;;;71.57;34.38;;;2.30;99.90;;;;;;5015689;28;20053;-71
2022/03/03 02:29:06;;;;;;;77.15;35.03;;;;;;;;;;5031886;28;20048;-71
2022/03/03 02:31:31;;;;;;;72.57;36.58;;;;;;;;;;5032294;28;20030;-70
2022/03/03 02:33:57;;;;;;;76.82;38.22;;;2.40;99.90;;;;;;5031906;28;20515;-71
2022/03/03 02:36:24;;;;;;;76.72;36.75;;;;;;;;;;5032004;28;20450;-71
2022/03/03 02:38:52;;;;;;;75.18;35.58;;;;;;;;;;5032899;28;20120;-72
2022/03/03 02:41:17;;;;;;;67.18;35.60;;;2.30;99.90;;;;;;5031973;28;20128;-70
2022/03/03 02:43:43;;;;;;;73.72;37.50;;;2.40;99.90;;;;;;5015088;28;20124;-71
2022/03/03 02:46:10;;;;;;;73.82;35.75;;;;;;;;;;5031771;28;20125;-70
2022/03/03 02:48:35;;;;;;;71.30;34.65;;;;;;;;;;5032122;28;20392;-71
2022/03/03 02:51:01;;;;;;;72.63;36.47;;;2.30;99.90;;;;;;5031534;28;20041;-71
2022/03/03 02:53:27;;;;;;;70.05;35.42;;;;;;;;;;5031614;28;20491;-71
2022/03/03 02:55:53;;;;;;;72.82;35.33;;;;;;;;;;5014964;28;20037;-71
2022/03/03 02:58:19;;;;;;;66.57;34.55;;;;;;;;;;5031760;28;20229;-70
2022/03/03 03:00:47;;;;;;;72.43;36.80;;;;;;;;;;5031006;28;20511;-71
2022/03/03 03:03:13;;;;;;;66.00;34.92;;;;;;;;;;5031569;28;20137;-70
2022/03/03 03:05:40;;;;;;;69.85;36.08;;;;;;;;;;5031181;28;20514;-70
2022/03/03 03:08:06;;;;;;;70.25;35.80;;;;;;;;;;5031101;28;20462;-70
2022/03/03 03:10:32;;;;;;;78.63;38.25;;;;;;;;;;5030868;28;20045;-71
2022/03/03 03:12:58;;;;;;;67.93;34.05;;;;;;;;;;5031315;28;20033;-71
2022/03/03 03:15:24;;;;;;;69.55;34.25;;;;;;;;;;5014782;28;20183;-69
2022/03/03 03:17:51;;;;;;;71.55;35.22;;;;;;;;;;5031072;28;20043;-71
2022/03/03 03:20:17;;;;;;;67.22;35.13;;;2.20;99.90;;;;;;5030913;28;20052;-71
2022/03/03 03:22:43;;;;;;;74.68;35.83;;;;;;;;;;5014610;28;20132;-72
2022/03/03 03:25:10;;;;;;;67.35;35.13;;;;;;;;;;5014416;28;20124;-71
2022/03/03 03:27:42;;;;;;;71.43;34.30;;;1.90;99.90;;;;;;5014480;28;20041;-69
2022/03/03 03:30:13;;;;;;;73.15;36.20;;;;;;;;;;5030578;28;20033;-71
2022/03/03 03:32:38;;;;;;;70.55;35.90;;;1.80;99.90;;;;;;5030853;28;20057;-71
2022/03/03 03:35:04;;;;;;;65.18;33.42;;;1.80;99.90;;;;;;5030965;28;20041;-70
2022/03/03 03:37:31;;;;;;;68.88;33.83;;;1.90;99.90;;;;;;5030920;28;20037;-71
2022/03/03 03:39:56;;;;;;;67.15;34.30;;;1.80;99.90;;;;;;5030395;28;20033;-70
2022/03/03 03:42:22;;;;;;;70.70;35.30;;;;;;;;;;5030638;28;20044;-71
2022/03/03 03:44:48;;;;;;;71.60;37.17;;;2.00;99.90;;;;;;5030476;28;20091;-71
2022/03/03 03:47:14;;;;;;;75.22;35.22;;;;;;;;;;5014179;28;20450;-70
2022/03/03 03:49:40;;;;;;;64.95;33.08;;;;;;;;;;5030604;28;20033;-70
2022/03/03 03:52:06;;;;;;;72.22;36.15;;;;;;;;;;5030516;28;20128;-70
2022/03/03 03:54:32;;;;;;;71.60;35.75;;;;;;;;;;5030721;28;20037;-70
2022/03/03 03:56:58;;;;;;;69.78;34.60;;;;;;;;;;5030204;28;20048;-70
2022/03/03 03:59:24;;;;;;;68.38;33.80;;;;;;;;;;5030146;28;20530;-70
2022/03/03 04:01:51;;;;;;;68.15;34.00;;;;;;;;;;5030309;28;20041;-71
2022/03/03 04:04:17;;;;;;;74.38;35.70;;;;;;;;;;5030255;28;20503;-70
2022/03/03 04:06:42;;;;;;;72.68;35.13;;;2.10;99.90;;;;;;5030112;28;20051;-70
2022/03/03 04:09:08;;;;;;;65.35;34.47;;;2.00;99.90;;;;;;5030055;28;20060;-70
2022/03/03 04:11:34;;;;;;;68.55;34.28;;;;;;;;;;5030206;28;20073;-71
2022/03/03 04:14:00;;;;;;;72.45;36.25;;;;;;;;;;5030340;28;20074;-71
2022/03/03 04:16:26;;;;;;;65.15;33.40;;;1.90;99.90;;;;;;5030133;28;20041;-71
2022/03/03 04:18:52;;;;;;;65.03;32.63;;;;;;;;;;5030294;28;20442;-70
2022/03/03 04:21:18;;;;;;;68.63;33.92;;;;;;;;;;5031526;28;20069;-71
2022/03/03 04:23:44;;;;;;;67.68;34.25;;;;;;;;;;5030221;28;20045;-71
2022/03/03 04:26:10;;;;;;;61.60;33.15;;;;;;;;;;5030133;28;20538;-70
2022/03/03 04:28:37;;;;;;;65.60;32.88;;;;;;;;;;5031508;28;20347;-70
2022/03/03 04:31:03;;;;;;;62.50;32.45;;;1.50;99.90;;;;;;5029752;28;20087;-69
2022/03/03 04:33:29;;;;;;;68.18;32.75;;;;;;;;;;5029965;28;20048;-70
2022/03/03 04:35:56;;;;;;;66.22;32.72;;;;;;;;;;5029883;28;20531;-70
2022/03/03 04:38:22;;;;;;;58.53;31.55;;;;;;;;;;5029968;28;20183;-69
2022/03/03 04:40:48;;;;;;;60.85;31.42;;;;;;;;;;5029945;28;20057;-69
2022/03/03 04:43:14;;;;;;;67.00;33.05;;;;;;;;;;5029955;28;20048;-70
2022/03/03 04:45:40;;;;;;;60.58;31.80;;;1.70;99.90;;;;;;5029991;28;20050;-70
2022/03/03 04:48:06;;;;;;;61.85;33.65;;;1.90;99.90;;;;;;5029905;28;20041;-69
2022/03/03 04:50:32;;;;;;;62.72;32.42;;;;;;;;;;5029671;28;20083;-70
2022/03/03 04:52:58;;;;;;;57.38;30.60;;;;;;;;;;5013427;28;20050;-70
2022/03/03 04:55:24;;;;;;;70.07;33.28;;;;;;;;;;5013818;28;20128;-70
2022/03/03 04:57:50;;;;;;;66.03;34.42;;;;;;;;;;5029894;28;20041;-70
2022/03/03 05:00:17;;;;;;;64.68;32.15;;;;;;;;;;5029544;28;20096;-70
2022/03/03 05:02:43;;;;;;;59.28;31.00;;;1.80;99.90;;;;;;5013276;28;20037;-69
2022/03/03 05:05:09;;;;;;;60.10;32.03;;;;;;;;;;5029672;28;20467;-70
2022/03/03 05:07:35;;;;;;;55.00;29.98;;;;;;;;;;5013315;28;20045;-70
2022/03/03 05:10:02;;;;;;;59.67;32.10;;;1.80;99.90;;;;;;5032051;28;20510;-70
2022/03/03 05:12:27;;;;;;;56.22;31.13;;;1.90;99.90;;;;;;5033529;28;20029;-69
2022/03/03 05:14:53;;;;;;;58.42;30.83;;;;;;;;;;5033734;28;20083;-70
2022/03/03 05:17:19;;;;;;;60.05;30.98;;;;;;;;;;5033328;28;20546;-69
2022/03/03 05:19:45;;;;;;;50.65;28.77;;;;;;;;;;5033081;28;20045;-71
2022/03/03 05:22:11;;;;;;;55.90;29.13;;;;;;;;;;5017081;28;20086;-69
2022/03/03 05:24:40;;;;;;;54.20;29.95;;;;;;;;;;5033263;28;20072;-70
2022/03/03 05:27:06;;;;;;;54.90;30.00;;;1.70;99.90;;;;;;5033209;28;20041;-69
2022/03/03 05:29:32;;;;;;;64.30;32.97;;;;;;;;;;5032866;28;20167;-70
2022/03/03 05:31:58;;;;;;;53.35;28.17;;;1.60;99.90;;;;;;5016621;28;20067;-70
2022/03/03 05:34:24;;;;;;;58.05;28.85;;;;;;;;;;5032928;28;20040;-69
2022/03/03 05:36:50;;;;;;;50.03;28.23;;;;;;;;;;5033050;28;20047;-69
2022/03/03 05:39:17;;;;;;;52.67;29.08;;;1.70;99.90;;;;;;5032724;28;20128;-70
2022/03/03 05:41:43;;;;;;;55.15;28.73;;;;;;;;;;5016515;28;20041;-70
2022/03/03 05:44:12;;;;;;;48.42;27.77;;;1.80;99.90;;;;;;5032645;28;20454;-70
2022/03/03 05:46:39;;;;;;;54.72;29.05;;;;;;;;;;5016333;28;20503;-70
2022/03/03 05:49:05;;;;;;;53.92;27.60;;;;;;;;;;5032808;28;20136;-70
2022/03/03 05:51:31;;;;;;;54.90;27.77;;;;;;;;;;5016314;28;20460;-71
2022/03/03 05:53:57;;;;;;;59.22;29.80;;;;;;;;;;5016342;28;20080;-70
2022/03/03 05:56:23;;;;;;;55.60;30.40;;;1.40;99.90;;;;;;5033119;28;20037;-69
2022/03/03 05:58:50;;;;;;;53.15;27.88;;;;;;;;;;5032983;28;20525;-70
2022/03/03 06:01:17;;;;;;;53.00;28.65;;;;;;;;;;5015949;28;20052;-70
2022/03/03 06:03:46;;;;;;;55.97;29.60;;;1.60;99.90;;;;;;5032465;28;20049;-69
2022/03/03 06:06:14;;;;;;;49.85;27.98;;;;;;;;;;5032769;28;20041;-69
2022/03/03 06:08:41;;;;;;;51.97;29.08;;;;;;;;;;5032483;28;20045;-70
2022/03/03 06:11:12;;;;;;;51.00;28.27;;;;;;;;;;5033588;28;20038;-70
2022/03/03 06:13:46;;;;;;;59.17;32.25;;;;;;;;;;5015946;28;20241;-69
2022/03/03 06:16:16;;;;;;;54.03;27.05;;;;;;;;;;5032545;28;20522;-70
2022/03/03 06:18:48;;;;;;;56.75;28.80;;;1.50;99.90;;;;;;5032640;28;20128;-71
2022/03/03 06:21:15;;;;;;;53.40;27.60;;;1.50;99.90;;;;;;5031717;28;20044;-69
2022/03/03 06:23:41;;;;;;;54.00;29.35;;;1.80;99.90;;;;;;5032139;28;20038;-69
2022/03/03 06:26:10;;;;;;;50.10;27.95;;;1.80;99.90;;;;;;5015665;28;20045;-69
2022/03/03 06:28:36;;;;;;;49.85;28.85;;;;;;;;;;5032189;28;20037;-69
2022/03/03 06:31:04;;;;;;;58.53;31.88;;;1.60;99.90;;;;;;5015371;28;20033;-70
2022/03/03 06:33:30;;;;;;;55.17;28.92;;;1.90;99.90;;;;;;5031986;28;20037;-69
2022/03/03 06:35:55;;;;;;;53.70;28.30;;;1.80;99.90;;;;;;5031910;28;20048;-69
2022/03/03 06:38:21;;;;;;;48.80;26.95;;;;;;;;;;5032012;28;20053;-69
2022/03/03 06:40:48;;;;;;;56.00;28.08;;;;;;;;;;5031801;28;20128;-69
2022/03/03 06:43:14;;;;;;;49.47;26.42;;;;;;;;;;5031648;28;20057;-70
2022/03/03 06:45:40;;;;;;;50.80;27.83;;;;;;;;;;5015975;28;20048;-69
2022/03/03 06:48:06;;;;;;;52.00;27.65;;;1.80;99.90;;;;;;5014997;28;20053;-68
2022/03/03 06:50:36;;;;;;;56.97;29.08;;;;;;;;;;5007730;28;20042;-68
2022/03/03 06:53:03;;;;;;;54.20;28.58;;;;;;;;;;5016148;28;20033;-68
2022/03/03 06:55:30;;;;;;;48.15;27.50;;;;;;;;;;5009278;28;20052;-69
2022/03/03 06:57:58;;;;;;;52.10;27.85;;;;;;;;;;5020640;28;20037;-68
2022/03/03 07:00:29;;;;;;;54.13;28.85;;;;;;;;;;5015922;28;20598;-69
2022/03/03 07:02:55;;;;;;;47.58;27.48;;;;;;;;;;5027650;28;20047;-70
2022/03/03 07:05:21;;;;;;;50.03;28.15;;;;;;;;;;5031105;28;20042;-70
2022/03/03 07:07:48;;;;;;;49.28;26.70;;;;;;;;;;5046454;28;20048;-69
2022/03/03 07:10:19;;;;;;;52.63;27.17;;;;;;;;;;5047877;28;20045;-68
2022/03/03 07:12:45;;;;;;;47.22;27.67;;;;;;;;;;5033237;28;20054;-69
2022/03/03 07:15:11;;;;;;;51.65;27.80;;;;;;;;;;5028263;28;20515;-70
2022/03/03 07:17:36;;;;;;;51.30;26.90;;;2.00;99.90;;;;;;5023762;28;20056;-69
2022/03/03 07:20:04;;;;;;;48.67;26.48;;;;;;;;;;5023650;28;20094;-68
2022/03/03 07:22:34;;;;;;;51.92;27.98;;;;;;;;;;5004161;28;20069;-71
2022/03/03 07:25:02;;;;;;;53.97;28.75;;;;;;;;;;5021809;28;20090;-69
2022/03/03 07:27:29;;;;;;;53.50;28.20;;;;;;;;;;5037503;28;20045;-71
2022/03/03 07:29:56;;;;;;;55.72;28.75;;;;;;;;;;5038793;28;20254;-70
2022/03/03 07:32:26;;;;;;;47.13;26.65;;;;;;;;;;5049225;28;20521;-70
2022/03/03 07:34:59;;;;;;;49.88;26.88;;;;;;;;;;5050496;28;20124;-70
2022/03/03 07:37:35;;;;;;;55.58;27.98;;;2.00;99.90;;;;;;5039677;28;20566;-70
2022/03/03 07:40:07;;;;;;;56.95;28.48;;;1.90;99.90;;;;;;5037107;28;20080;-71
2022/03/03 07:42:34;;;;;;;47.45;27.15;;;2.00;99.90;;;;;;5038796;28;20072;-70
2022/03/03 07:45:03;;;;;;;47.20;26.63;;;2.20;99.90;;;;;;5055909;22;20053;-69
2022/03/03 07:47:30;;;;;;;49.22;26.05;;;;;;;;;;5029594;28;20067;-69
2022/03/03 07:49:56;;;;;;;49.15;26.13;;;2.40;99.90;;;;;;5030682;28;20502;-69
2022/03/03 07:52:23;;;;;;;47.15;26.67;;;;;;;;;;5029867;28;20041;-70
2022/03/03 07:54:49;;;;;;;47.70;27.25;;;;;;;;;;5033000;28;20044;-68
2022/03/03 07:57:16;;;;;;;47.92;26.75;;;;;;;;;;5050334;28;20121;-68
2022/03/03 07:59:47;;;;;;;45.08;26.55;;;;;;;;;;5050030;28;20477;-69
2022/03/03 08:02:19;;;;;;;46.22;25.67;;;2.70;99.90;;;;;;5033489;28;20051;-68
2022/03/03 08:04:46;;;;;;;45.83;26.73;;;;;;;;;;5050208;28;20044;-69
2022/03/03 08:07:14;;;;;;;44.53;24.35;;;2.80;99.90;;;;;;5050005;28;20076;-69
2022/03/03 08:09:41;;;;;;;45.70;24.95;;;;;;;;;;5030727;28;20037;-69
2022/03/03 08:12:10;;;;;;;42.90;24.52;;;;;;;;;;5010735;28;20038;-69
2022/03/03 08:14:36;;;;;;;47.45;25.85;;;;;;;;;;5010180;28;20053;-69
2022/03/03 08:17:03;;;;;;;39.92;23.77;;;;;;;;;;5010356;28;20046;-69
2022/03/03 08:19:30;;;;;;;46.15;25.30;;;3.00;99.90;;;;;;5010293;28;20057;-69
2022/03/03 08:21:56;;;;;;;44.03;24.65;;;3.20;99.90;;;;;;5010519;28;20029;-69
2022/03/03 08:24:22;;;;;;;44.83;25.92;;;;;;;;;;5019974;28;20107;-69
2022/03/03 08:26:48;;;;;;;47.90;26.75;;;;;;;;;;5019883;28;20125;-70
2022/03/03 08:29:14;;;;;;;50.88;26.50;;;;;;;;;;5018147;28;20042;-68
2022/03/03 08:31:46;;;;;;;41.08;23.48;;;;;;;;;;5023174;28;20375;-69
2022/03/03 08:34:31;;;;;;;43.90;25.17;;;;;;;;;;5049622;28;20505;-68
2022/03/03 08:37:02;;;;;;;41.30;25.10;;;;;;;;;;5049939;28;20115;-69
2022/03/03 08:39:29;;;;;;;43.45;25.60;;;;;;;;;;5049343;28;20053;-69
2022/03/03 08:41:57;;;;;;;46.80;24.63;;;3.70;99.90;;;;;;5049772;28;20503;-69
2022/03/03 08:44:27;;;;;;;40.72;24.90;;;;;;;;;;5052190;28;20502;-68
2022/03/03 08:46:55;;;;;;;41.33;23.35;;;;;;;;;;5040866;28;20080;-69
2022/03/03 08:49:21;;;;;;;44.78;24.58;;;;;;;;;;5028267;28;20074;-68
2022/03/03 08:51:47;;;;;;;46.25;25.42;;;;;;;;;;5033348;28;20033;-67
2022/03/03 08:54:13;;;;;;;39.60;22.13;;;;;;;;;;5049507;28;20037;-67
2022/03/03 08:56:39;;;;;;;42.63;24.05;;;;;;;;;;5045131;28;20048;-68
2022/03/03 08:59:05;;;;;;;41.58;24.23;;;;;;;;;;5033227;28;20399;-67
2022/03/03 09:01:31;;;;;;;41.40;24.75;;;;;;;;;;5049593;28;20387;-67
2022/03/03 09:03:58;;;;;;;41.05;24.33;;;4.40;99.90;;;;;;5037114;28;20133;-67
2022/03/03 09:06:24;;;;;;;41.83;22.98;;;;;;;;;;5034341;28;20089;-68
2022/03/03 09:08:51;;;;;;;36.72;22.30;;;;;;;;;;5034358;28;20482;-68
2022/03/03 09:11:18;;;;;;;48.22;24.00;;;;;;;;;;5014842;28;20073;-67
2022/03/03 09:13:44;;;;;;;35.88;21.75;;;4.70;99.90;;;;;;5014674;28;20131;-67
2022/03/03 09:16:10;;;;;;;37.95;23.27;;;;;;;;;;5014107;28;20559;-67
2022/03/03 09:18:36;;;;;;;40.40;23.33;;;;;;;;;;5015423;28;20455;-67
2022/03/03 09:21:02;;;;;;;38.15;22.38;;;;;;;;;;5013888;28;20046;-67
2022/03/03 09:23:29;;;;;;;35.03;21.15;;;;;;;;;;5013558;28;20041;-67
2022/03/03 09:25:54;;;;;;;37.47;21.10;;;;;;;;;;5022676;28;20052;-68
2022/03/03 09:28:20;;;;;;;36.47;22.17;;;;;;;;;;5033191;28;20128;-67
2022/03/03 09:30:47;;;;;;;38.10;21.27;;;;;;;;;;5034079;28;20049;-67
2022/03/03 09:33:13;;;;;;;34.08;21.02;;;5.60;99.90;;;;;;5043697;28;20052;-66
2022/03/03 09:35:39;;;;;;;35.47;20.23;;;;;;;;;;5014944;28;20046;-68
2022/03/03 09:38:05;;;;;;;31.70;20.05;;;;;;;;;;5023185;28;20041;-68
2022/03/03 09:40:31;;;;;;;32.63;20.27;;;;;;;;;;5035932;28;20040;-67
2022/03/03 09:43:07;;;;;;;28.42;18.08;;;;;;;;;;5034773;28;20538;-68
2022/03/03 09:45:33;;;;;;;31.00;18.80;;;;;;;;;;5035866;28;20483;-67
2022/03/03 09:48:02;;;;;;;27.73;17.88;;;;;;;;;;5033725;28;20463;-67
2022/03/03 09:50:30;;;;;;;33.17;20.52;;;;;;;;;;5008681;28;20132;-67
2022/03/03 09:52:56;;;;;;;31.33;18.33;;;;;;;;;;5031021;28;20517;-67
2022/03/03 09:55:22;;;;;;;29.17;18.58;;;6.40;99.90;;;;;;5045362;28;20064;-68
2022/03/03 09:57:49;;;;;;;34.75;18.55;;;;;;;;;;5033979;28;20396;-70
2022/03/03 10:00:16;;;;;;;27.55;17.83;;;;;;;;;;5023324;28;20037;-70
2022/03/03 10:03:09;;;;;;;26.92;17.02;;;6.50;99.90;;;;;;5025218;28;20038;-68
2022/03/03 10:05:40;;;;;;;31.65;18.13;;;6.60;99.90;;;;;;5032121;28;20434;-69
2022/03/03 10:08:11;;;;;;;28.38;18.65;;;6.80;99.90;;;;;;5032105;28;20121;-69
2022/03/03 10:10:40;;;;;;;29.30;18.17;;;6.70;99.90;;;;;;5012089;28;20392;-69
2022/03/03 10:13:08;;;;;;;29.27;18.23;;;6.90;99.90;;;;;;5012088;28;20030;-68
2022/03/03 10:15:35;;;;;;;28.23;17.02;;;;;;;;;;5012485;28;20042;-68
2022/03/03 10:18:06;;;;;;;32.85;19.30;;;;;;;;;;5017420;28;20036;-69
2022/03/03 10:20:47;;;;;;;27.85;16.95;;;;;;;;;;5030746;28;20067;-69
2022/03/03 10:23:13;;;;;;;30.23;17.08;;;;;;;;;;5031738;28;20064;-70
2022/03/03 10:25:42;;;;;;;25.23;16.13;;;7.00;99.90;;;;;;5047200;28;20127;-69
2022/03/03 10:28:14;;;;;;;30.73;17.67;;;7.10;99.90;;;;;;5051561;28;20040;-69
2022/03/03 10:31:05;;;;;;;24.75;16.70;;;7.20;99.90;;;;;;5034801;28;20040;-69
2022/03/03 10:33:39;;;;;;;26.80;15.98;;;7.50;99.90;;;;;;5011713;28;20038;-68
2022/03/03 10:36:05;;;;;;;28.83;17.17;;;;;;;;;;5011697;28;20049;-69
2022/03/03 10:38:33;;;;;;;27.73;16.92;;;7.30;99.90;;;;;;5011696;28;20049;-69
2022/03/03 10:40:59;;;;;;;27.65;16.50;;;7.40;99.90;;;;;;4995152;28;20095;-69
2022/03/03 10:43:25;;;;;;;23.23;16.05;;;7.50;99.90;;;;;;5011484;28;20121;-69
2022/03/03 10:45:59;;;;;;;24.08;15.55;;;7.50;99.90;;;;;;5023326;28;20034;-69
2022/03/03 10:48:26;;;;;;;28.20;17.02;;;;;;;;;;5026553;28;20041;-69
2022/03/03 10:50:58;;;;;;;25.05;16.40;;;;;;;;;;5021530;28;20041;-69
2022/03/03 10:53:25;;;;;;;26.90;16.67;;;;;;;;;;5011581;28;20053;-69
2022/03/03 10:56:00;;;;;;;26.23;17.20;;;7.80;99.90;;;;;;5011600;28;20045;-70
2022/03/03 10:58:48;;;;;;;24.83;16.58;;;7.80;99.90;;;;;;5004410;28;20044;-69
2022/03/03 11:01:15;;;;;;;25.75;15.90;;;7.90;99.90;;;;;;5050733;28;20044;-69
2022/03/03 11:03:44;;;;;;;21.00;14.18;;;;;;;;;;5051340;28;20062;-71
2022/03/03 11:06:10;;;;;;;27.17;15.00;;;;;;;;;;5044225;28;20096;-69
2022/03/03 11:08:37;;;;;;;22.67;14.38;;;8.20;99.90;;;;;;5010686;28;20042;-69
2022/03/03 11:11:03;;;;;;;25.67;15.40;;;;;;;;;;5010988;28;20053;-68
2022/03/03 11:13:30;;;;;;;22.10;14.15;;;;;;;;;;5011404;28;20042;-69
2022/03/03 11:15:56;;;;;;;21.42;14.48;;;;;;;;;;5011505;28;20472;-70
2022/03/03 11:18:23;;;;;;;21.55;13.25;;;9.10;99.90;;;;;;5011091;28;20125;-69
2022/03/03 11:20:49;;;;;;;20.98;14.02;;;9.10;99.90;;;;;;5010468;28;20160;-69
2022/03/03 11:23:15;;;;;;;20.20;13.75;;;;;;;;;;4994568;28;20503;-69
2022/03/03 11:25:41;;;;;;;16.85;12.35;;;;;;;;;;5013331;28;20104;-69
2022/03/03 11:28:10;;;;;;;20.55;13.32;;;9.10;99.20;;;;;;5033363;28;20471;-68
2022/03/03 11:30:37;;;;;;;19.48;12.40;;;;;;;;;;5030985;28;20037;-68
2022/03/03 11:33:18;;;;;;;17.15;11.60;;;9.40;98.20;;;;;;5047093;28;20053;-67
2022/03/03 11:35:52;;;;;;;17.60;11.48;;;9.50;97.20;;;;;;5028725;28;20071;-67
2022/03/03 11:38:18;;;;;;;17.80;12.35;;;10.10;98.30;;;;;;5027362;28;20478;-68
2022/03/03 11:40:54;;;;;;;16.98;12.27;;;;;;;;;;5013331;28;20053;-68
2022/03/03 11:43:19;;;;;;;18.02;12.02;;;9.80;98.50;;;;;;5008335;28;20511;-69
2022/03/03 11:45:54;;;;;;;18.60;10.43;;;10.00;98.80;;;;;;5010822;28;20424;-68
2022/03/03 11:48:20;;;;;;;15.57;10.80;;;;;;;;;;5021508;28;20041;-68
2022/03/03 11:50:47;;;;;;;16.98;11.60;;;10.50;97.90;;;;;;5027755;28;20132;-66
2022/03/03 11:53:19;;;;;;;17.05;10.70;;;10.30;98.20;;;;;;5026906;28;20091;-68
2022/03/03 11:56:00;;;;;;;15.68;11.32;;;9.90;97.40;;;;;;5019223;28;20029;-68
2022/03/03 11:58:26;;;;;;;14.68;9.95;;;;;;;;;;5018544;28;20574;-68
2022/03/03 12:01:02;;;;;;;15.88;10.40;;;9.90;99.10;;;;;;5018951;28;20104;-68
2022/03/03 12:03:31;;;;;;;13.38;9.43;;;9.80;99.50;;;;;;5030052;28;20057;-68
2022/03/03 12:06:10;;;;;;;16.33;11.40;;;9.80;98.40;;;;;;5030113;28;20037;-68
2022/03/03 12:08:41;;;;;;;19.10;11.23;;;9.70;98.70;;;;;;5030377;28;20443;-68
2022/03/03 12:11:15;;;;;;;17.40;11.68;;;9.60;98.10;;;;;;5030431;28;20068;-69
2022/03/03 12:13:44;;;;;;;16.33;12.45;;;;;;;;;;5031937;28;20041;-69
2022/03/03 12:16:33;;;;;;;19.33;11.63;;;9.70;99.10;;;;;;5030673;28;20041;-69
2022/03/03 12:19:02;;;;;;;17.08;11.20;;;9.70;99.20;;;;;;5029940;28;20053;-68
2022/03/03 12:21:28;;;;;;;19.60;11.77;;;;;;;;;;5030310;28;20054;-69
2022/03/03 12:24:17;;;;;;;19.40;12.07;;;9.60;98.10;;;;;;5031131;28;20049;-68
2022/03/03 12:26:54;;;;;;;16.35;11.45;;;9.70;98.50;;;;;;5030014;28;20184;-68
2022/03/03 12:29:56;;;;;;;14.80;10.07;;;9.90;98.30;;;;;;5013920;28;20105;-67
2022/03/03 12:32:29;;;;;;;14.35;10.35;;;9.70;98.30;;;;;;5023973;28;20440;-68
2022/03/03 12:35:01;;;;;;;16.40;9.38;;;9.90;98.70;;;;;;5023174;28;20025;-67
2022/03/03 12:37:29;;;;;;;12.95;8.82;;;9.70;98.90;;;;;;5018941;28;20111;-68
2022/03/03 12:40:00;;;;;;;17.75;11.82;;;9.80;99.90;;;;;;4994094;28;20057;-68
2022/03/03 12:42:28;;;;;;;22.35;14.00;;;9.90;99.90;;;;;;5009799;28;20046;-68
2022/03/03 12:44:56;;;;;;;25.35;14.35;;;9.80;99.90;;;;;;5008306;28;20034;-68
2022/03/03 12:47:36;;;;;;;24.00;14.68;;;9.80;99.90;;;;;;5011421;28;20038;-68
2022/03/03 12:50:03;;;;;;;22.10;15.05;;;10.00;99.90;;;;;;5009370;28;20042;-67
2022/03/03 12:52:29;;;;;;;21.30;14.38;;;;;;;;;;4993760;28;20037;-68
2022/03/03 12:54:56;;;;;;;20.73;13.85;;;;;;;;;;5010033;28;20042;-68
2022/03/03 12:57:30;;;;;;;19.05;13.73;;;10.10;99.90;;;;;;4994002;28;20065;-68
2022/03/03 13:00:12;;;;;;;20.98;13.63;;;9.90;99.90;;;;;;5009552;28;20042;-68
2022/03/03 13:02:50;;;;;;;18.58;11.45;;;10.00;99.90;;;;;;5010054;28;20132;-68
2022/03/03 13:05:35;;;;;;;20.83;11.73;;;10.00;99.50;;;;;;5014959;28;20373;-69
2022/03/03 13:08:02;;;;;;;16.88;11.38;;;;;;;;;;5009899;28;20136;-69
2022/03/03 13:10:32;;;;;;;16.27;10.77;;;10.10;99.90;;;;;;5009342;28;20053;-69
2022/03/03 13:12:58;;;;;;;16.08;10.50;;;;;;;;;;5009979;28;20057;-69
2022/03/03 13:15:36;;;;;;;18.38;11.02;;;10.00;99.90;;;;;;5010172;28;20053;-69
2022/03/03 13:18:11;;;;;;;16.73;11.23;;;10.40;99.10;;;;;;4994095;28;20392;-70
2022/03/03 13:20:43;;;;;;;16.33;12.50;;;10.30;99.90;;;;;;5009594;28;20045;-69
2022/03/03 13:23:14;;;;;;;19.83;12.10;;;10.20;99.90;;;;;;4993323;28;20039;-66
2022/03/03 13:25:41;;;;;;;18.00;12.65;;;10.10;99.60;;;;;;5009703;28;20048;-67
2022/03/03 13:28:09;;;;;;;19.52;13.38;;;10.20;99.40;;;;;;5009628;28;20484;-67
2022/03/03 13:30:35;;;;;;;20.63;13.27;;;;;;;;;;5010676;28;20087;-67
2022/03/03 13:33:01;;;;;;;21.10;12.25;;;;;;;;;;5047222;28;20044;-67
2022/03/03 13:35:40;;;;;;;16.98;11.55;;;10.20;98.50;;;;;;5038583;28;20033;-67
2022/03/03 13:38:06;;;;;;;17.73;11.52;;;10.10;98.90;;;;;;5020052;28;20513;-67
2022/03/03 13:40:34;;;;;;;17.88;11.88;;;10.20;99.80;;;;;;5033954;28;20048;-67